Time;durP1;ratioP1;P1;durP2;ratioP2;P2;SDS_P1;SDS_P2;PMS_P1;PMS_P2;Temp;Humidity;BMP_temperature;BMP_pressure;BME280_temperature;BME280_humidity;BME280_pressure;Samples;Min_cycle;Max_cycle;Signal;HPM_P1;HPM_P2
2021/06/11 00:00:22;;;;;;;11.80;10.60;;;14.40;99.90;;;;;;4972584;28;20864;-91
2021/06/11 00:02:50;;;;;;;11.90;10.80;;;14.30;99.90;;;;;;4976407;28;20454;-92
2021/06/11 00:05:17;;;;;;;13.10;10.67;;;;;;;;;;4975700;28;20496;-92
2021/06/11 00:07:44;;;;;;;11.33;10.23;;;;;;;;;;4975736;28;20459;-90
2021/06/11 00:10:12;;;;;;;11.13;10.10;;;14.20;99.90;;;;;;4973974;28;20517;-92
2021/06/11 00:12:39;;;;;;;12.53;9.97;;;14.20;99.90;;;;;;4976405;28;20452;-91
2021/06/11 00:15:08;;;;;;;14.57;10.67;;;14.30;99.90;;;;;;4976447;28;20477;-94
2021/06/11 00:17:35;;;;;;;12.03;10.93;;;;;;;;;;4971457;28;20439;-91
2021/06/11 00:20:04;;;;;;;13.00;11.33;;;14.10;99.90;;;;;;4973254;28;20439;-92
2021/06/11 00:22:31;;;;;;;13.73;10.97;;;;;;;;;;4972192;28;20454;-91
2021/06/11 00:24:57;;;;;;;11.50;10.50;;;;;;;;;;4975772;28;20492;-92
2021/06/11 00:27:24;;;;;;;11.77;10.67;;;14.10;99.90;;;;;;4975690;28;20494;-94
2021/06/11 00:29:50;;;;;;;11.20;10.10;;;14.10;99.90;;;;;;4975639;28;20486;-91
2021/06/11 00:32:17;;;;;;;11.50;10.40;;;14.10;99.90;;;;;;4971431;28;20434;-91
2021/06/11 00:34:43;;;;;;;10.57;9.47;;;14.10;99.90;;;;;;4976022;28;20438;-93
2021/06/11 00:37:12;;;;;;;11.63;10.50;;;14.20;99.90;;;;;;4977963;28;20470;-92
2021/06/11 00:39:39;;;;;;;13.97;11.50;;;14.20;99.90;;;;;;4976857;28;20461;-92
2021/06/11 00:42:06;;;;;;;11.37;10.13;;;14.10;99.90;;;;;;4978084;28;20454;-94
2021/06/11 00:44:33;;;;;;;11.80;10.67;;;14.10;99.90;;;;;;4977570;28;20447;-92
2021/06/11 00:46:59;;;;;;;16.53;11.00;;;14.10;99.90;;;;;;4979141;28;20485;-91
2021/06/11 00:49:25;;;;;;;13.17;11.87;;;14.10;99.90;;;;;;4977486;28;20450;-93
2021/06/11 00:51:52;;;;;;;13.43;12.13;;;;;;;;;;4979462;28;20918;-92
2021/06/11 00:54:20;;;;;;;12.33;11.10;;;14.20;99.90;;;;;;4979021;28;20928;-92
2021/06/11 00:56:47;;;;;;;13.40;11.97;;;;;;;;;;4975401;28;20993;-91
2021/06/11 00:59:14;;;;;;;12.73;11.40;;;;;;;;;;4979216;28;20458;-91
2021/06/11 01:01:42;;;;;;;12.87;11.57;;;;;;;;;;4976101;28;20456;-94
2021/06/11 01:04:08;;;;;;;12.53;11.13;;;14.00;99.90;;;;;;4977042;28;20493;-93
2021/06/11 01:06:36;;;;;;;12.57;11.37;;;13.90;99.90;;;;;;4975720;28;20498;-92
2021/06/11 01:09:03;;;;;;;12.53;11.43;;;;;;;;;;4975457;28;20458;-91
2021/06/11 01:11:31;;;;;;;13.73;10.73;;;14.00;99.90;;;;;;4979060;28;20489;-91
2021/06/11 01:13:58;;;;;;;12.73;11.53;;;13.90;99.90;;;;;;4978993;28;20517;-93
2021/06/11 01:16:25;;;;;;;13.17;11.80;;;;;;;;;;4975963;28;20465;-93
2021/06/11 01:18:52;;;;;;;11.50;10.40;;;;;;;;;;4978199;28;20460;-93
2021/06/11 01:21:20;;;;;;;12.10;10.77;;;13.70;99.90;;;;;;4979077;28;20453;-92
2021/06/11 01:24:02;;;;;;;12.83;11.63;;;13.70;99.90;;;;;;4975142;28;20470;-93
2021/06/11 01:26:36;;;;;;;11.60;10.43;;;13.80;99.90;;;;;;4974452;28;20482;-92
2021/06/11 01:29:05;;;;;;;12.53;11.33;;;13.80;99.90;;;;;;4975536;28;20476;-92
2021/06/11 01:31:35;;;;;;;13.40;12.10;;;13.90;99.90;;;;;;4974824;28;20430;-94
2021/06/11 01:34:06;;;;;;;17.73;12.87;;;13.90;99.90;;;;;;4975308;28;20469;-93
2021/06/11 01:36:37;;;;;;;14.07;12.40;;;14.00;99.90;;;;;;4975392;28;20967;-93
2021/06/11 01:39:06;;;;;;;14.33;13.03;;;13.90;99.90;;;;;;4975060;28;20477;-93
2021/06/11 01:41:37;;;;;;;14.43;12.93;;;14.00;99.90;;;;;;4978312;28;20485;-92
2021/06/11 01:44:06;;;;;;;15.83;13.83;;;14.00;99.90;;;;;;4975045;28;20435;-92
2021/06/11 01:46:34;;;;;;;15.00;13.60;;;14.10;99.90;;;;;;4973441;28;20493;-94
2021/06/11 01:49:02;;;;;;;14.30;12.80;;;14.20;99.90;;;;;;4977243;28;20454;-94
2021/06/11 01:51:30;;;;;;;14.23;12.80;;;14.10;99.90;;;;;;4972919;28;20454;-92
2021/06/11 01:53:59;;;;;;;15.13;12.87;;;14.20;99.90;;;;;;4977006;28;20435;-93
2021/06/11 01:56:26;;;;;;;14.87;13.47;;;;;;;;;;4974963;28;20457;-93
2021/06/11 01:58:55;;;;;;;19.13;13.30;;;14.10;99.90;;;;;;4976483;28;20454;-94
2021/06/11 02:01:22;;;;;;;14.20;12.73;;;14.10;99.90;;;;;;4971646;28;20454;-93
2021/06/11 02:03:51;;;;;;;14.20;12.70;;;13.90;99.90;;;;;;4973062;28;20494;-92
2021/06/11 02:06:19;;;;;;;15.03;13.47;;;13.90;99.90;;;;;;4977931;28;20470;-91
2021/06/11 02:08:48;;;;;;;13.13;11.83;;;13.90;99.90;;;;;;4973144;28;20454;-93
2021/06/11 02:11:15;;;;;;;13.13;11.20;;;;;;;;;;4975347;28;20828;-93
2021/06/11 02:13:43;;;;;;;14.33;12.77;;;13.80;99.90;;;;;;4973784;28;20446;-92
2021/06/11 02:16:12;;;;;;;13.10;11.90;;;13.80;99.90;;;;;;4974669;28;20463;-92
2021/06/11 02:18:39;;;;;;;15.20;13.77;;;13.80;99.90;;;;;;4972870;28;20453;-93
2021/06/11 02:21:06;;;;;;;14.07;12.67;;;13.90;99.90;;;;;;4974850;28;20454;-93
2021/06/11 02:23:34;;;;;;;15.50;13.30;;;14.00;99.90;;;;;;4974035;28;20454;-91
2021/06/11 02:26:01;;;;;;;15.87;14.00;;;14.10;99.90;;;;;;4976618;28;20842;-91
2021/06/11 02:28:27;;;;;;;15.80;14.20;;;;;;;;;;4977244;28;20442;-93
2021/06/11 02:30:54;;;;;;;15.30;13.90;;;;;;;;;;4977494;28;20809;-92
2021/06/11 02:33:22;;;;;;;14.67;13.17;;;14.00;99.90;;;;;;4975779;28;20516;-93
2021/06/11 02:35:49;;;;;;;15.37;13.77;;;;;;;;;;4977387;28;20454;-92
2021/06/11 02:38:15;;;;;;;14.27;12.80;;;;;;;;;;4976833;28;20794;-94
2021/06/11 02:40:42;;;;;;;16.00;13.10;;;;;;;;;;4975281;28;20468;-93
2021/06/11 02:43:11;;;;;;;14.53;13.13;;;14.00;99.90;;;;;;4977693;28;20451;-92
2021/06/11 02:45:45;;;;;;;16.53;14.80;;;14.00;99.90;;;;;;4976858;28;20919;-93
2021/06/11 02:48:20;;;;;;;15.70;14.10;;;14.00;99.90;;;;;;4976790;28;20435;-93
2021/06/11 02:50:55;;;;;;;14.47;13.17;;;14.00;99.90;;;;;;4976088;28;20430;-92
2021/06/11 02:53:26;;;;;;;16.70;13.47;;;13.90;99.90;;;;;;4976308;28;20516;-94
2021/06/11 02:55:58;;;;;;;14.47;12.90;;;13.90;99.90;;;;;;4976448;28;20450;-93
2021/06/11 02:58:31;;;;;;;14.30;12.80;;;14.00;99.90;;;;;;4973789;28;20457;-93
2021/06/11 03:01:02;;;;;;;15.10;13.60;;;13.80;99.90;;;;;;4976786;28;20554;-93
2021/06/11 03:03:30;;;;;;;15.60;13.97;;;13.80;99.90;;;;;;4973758;28;20482;-95
2021/06/11 03:06:02;;;;;;;13.93;12.53;;;13.80;99.90;;;;;;4976694;28;20481;-93
2021/06/11 03:08:32;;;;;;;14.97;13.40;;;13.70;99.90;;;;;;4973964;28;20462;-93
2021/06/11 03:11:04;;;;;;;15.67;12.30;;;13.70;99.90;;;;;;4973978;28;20478;-92
2021/06/11 03:13:32;;;;;;;13.43;12.13;;;13.70;99.90;;;;;;4976769;28;20542;-92
2021/06/11 03:15:59;;;;;;;13.60;12.20;;;;;;;;;;4972624;28;20461;-94
2021/06/11 03:18:30;;;;;;;13.33;12.00;;;13.60;99.90;;;;;;4977233;28;20497;-93
2021/06/11 03:21:03;;;;;;;14.00;12.50;;;13.50;99.90;;;;;;4974458;28;20450;-92
2021/06/11 03:23:33;;;;;;;13.20;11.90;;;13.50;99.90;;;;;;4972052;28;20505;-92
2021/06/11 03:26:03;;;;;;;13.33;12.03;;;13.50;99.90;;;;;;4971951;28;20462;-93
2021/06/11 03:28:36;;;;;;;14.27;12.80;;;13.50;99.90;;;;;;4975392;28;20450;-92
2021/06/11 03:31:04;;;;;;;13.63;12.20;;;13.40;99.90;;;;;;4972014;28;20915;-94
2021/06/11 03:33:39;;;;;;;12.80;11.60;;;13.40;99.90;;;;;;4976640;28;20447;-92
2021/06/11 03:36:13;;;;;;;14.10;12.60;;;13.30;99.90;;;;;;4973955;28;20466;-94
2021/06/11 03:38:42;;;;;;;14.53;12.97;;;13.30;99.90;;;;;;4971923;28;20957;-92
2021/06/11 03:41:09;;;;;;;13.93;12.53;;;13.40;99.90;;;;;;4973681;28;20465;-93
2021/06/11 03:43:36;;;;;;;13.27;11.97;;;;;;;;;;4976291;28;20472;-92
2021/06/11 03:46:03;;;;;;;13.53;12.23;;;;;;;;;;4976352;28;20478;-93
2021/06/11 03:48:31;;;;;;;14.93;13.43;;;13.30;99.90;;;;;;4975079;28;20447;-93
2021/06/11 03:50:59;;;;;;;12.93;11.70;;;13.30;99.90;;;;;;4973213;28;20446;-92
2021/06/11 03:53:29;;;;;;;14.60;12.87;;;13.30;99.90;;;;;;4973419;28;20509;-93
2021/06/11 03:55:59;;;;;;;15.03;13.47;;;13.40;99.90;;;;;;4973903;28;20450;-93
2021/06/11 03:58:36;;;;;;;14.70;11.53;;;13.50;99.90;;;;;;4972050;28;20443;-91
2021/06/11 04:01:18;;;;;;;13.10;11.80;;;13.30;99.90;;;;;;4962188;28;20999;-91
2021/06/11 04:03:47;;;;;;;15.00;11.80;;;;;;;;;;4972909;28;20474;-94
2021/06/11 04:06:17;;;;;;;13.53;12.13;;;13.30;99.90;;;;;;4967739;28;20511;-93
2021/06/11 04:08:52;;;;;;;12.27;11.07;;;13.00;99.90;;;;;;4960679;28;20549;-93
2021/06/11 04:11:28;;;;;;;13.23;11.93;;;15.90;99.90;;;;;;4963486;28;20446;-93
2021/06/11 04:13:55;;;;;;;12.57;11.27;;;;;;;;;;4965926;28;20454;-93
2021/06/11 04:16:25;;;;;;;16.80;12.40;;;13.40;99.90;;;;;;4975825;28;20505;-91
2021/06/11 04:18:59;;;;;;;13.90;10.87;;;13.50;99.90;;;;;;4970897;28;20805;-92
2021/06/11 04:21:29;;;;;;;13.50;12.17;;;;;;;;;;4974233;28;20858;-92
2021/06/11 04:24:04;;;;;;;16.80;12.43;;;13.50;99.90;;;;;;4956134;28;20438;-92
2021/06/11 04:26:34;;;;;;;15.60;13.47;;;13.60;99.90;;;;;;4952144;28;20494;-91
2021/06/11 04:29:07;;;;;;;15.33;13.17;;;13.70;99.90;;;;;;4972805;28;20450;-91
2021/06/11 04:31:33;;;;;;;13.73;12.40;;;13.70;99.90;;;;;;4973343;28;20868;-91
2021/06/11 04:34:00;;;;;;;14.23;12.83;;;13.90;99.90;;;;;;4973566;28;20469;-92
2021/06/11 04:36:28;;;;;;;15.10;13.30;;;13.90;99.90;;;;;;4970618;28;20512;-93
2021/06/11 04:38:59;;;;;;;14.17;12.77;;;14.10;99.90;;;;;;4974578;28;20450;-92
2021/06/11 04:41:28;;;;;;;15.60;13.57;;;14.30;99.90;;;;;;4973112;28;20826;-92
2021/06/11 04:43:57;;;;;;;15.53;13.60;;;14.30;99.90;;;;;;4975646;28;20841;-93
2021/06/11 04:46:24;;;;;;;14.10;12.80;;;14.40;99.90;;;;;;4975649;28;20496;-92
2021/06/11 04:48:51;;;;;;;14.20;12.37;;;;;;;;;;4975561;28;20461;-94
2021/06/11 04:51:18;;;;;;;13.40;12.03;;;;;;;;;;4972645;28;20938;-92
2021/06/11 04:53:46;;;;;;;14.33;13.03;;;14.70;99.90;;;;;;4978206;28;20434;-93
2021/06/11 04:56:14;;;;;;;14.50;13.20;;;14.70;99.90;;;;;;4972053;28;20462;-93
2021/06/11 04:58:42;;;;;;;14.23;12.90;;;14.90;99.90;;;;;;4976319;28;20458;-92
2021/06/11 05:01:10;;;;;;;13.87;12.67;;;14.90;99.90;;;;;;4977602;28;20462;-94
2021/06/11 05:03:37;;;;;;;14.93;13.53;;;14.90;99.90;;;;;;4978887;28;20513;-93
2021/06/11 05:06:04;;;;;;;14.70;13.20;;;15.20;99.90;;;;;;4979686;28;20513;-94
2021/06/11 05:08:31;;;;;;;13.03;11.93;;;15.10;99.90;;;;;;4977887;28;20478;-93
2021/06/11 05:10:58;;;;;;;13.33;12.13;;;;;;;;;;4974388;28;20950;-91
2021/06/11 05:13:26;;;;;;;15.07;12.10;;;15.30;99.90;;;;;;4980465;28;20945;-93
2021/06/11 05:15:56;;;;;;;13.40;12.17;;;15.30;99.90;;;;;;4979991;28;20496;-94
2021/06/11 05:18:25;;;;;;;14.80;12.90;;;15.40;99.90;;;;;;4980128;28;20454;-94
2021/06/11 05:20:52;;;;;;;12.70;11.60;;;15.50;99.90;;;;;;4976307;28;20454;-94
2021/06/11 05:23:19;;;;;;;13.10;11.80;;;15.70;99.90;;;;;;4977806;28;20938;-94
2021/06/11 05:25:46;;;;;;;13.10;11.90;;;15.80;99.90;;;;;;4979791;28;20446;-93
2021/06/11 05:28:13;;;;;;;13.33;12.10;;;16.00;99.90;;;;;;4978881;28;20481;-91
2021/06/11 05:30:41;;;;;;;12.67;11.47;;;16.20;99.90;;;;;;4980061;28;20814;-91
2021/06/11 05:33:07;;;;;;;12.70;11.40;;;16.60;99.90;;;;;;4978484;28;20465;-93
2021/06/11 05:35:34;;;;;;;12.50;11.33;;;16.50;99.90;;;;;;4978938;28;20423;-93
2021/06/11 05:38:04;;;;;;;12.27;11.17;;;16.90;99.90;;;;;;4978276;28;20462;-90
2021/06/11 05:40:31;;;;;;;12.40;10.13;;;17.60;99.90;;;;;;4976170;28;20442;-92
2021/06/11 05:42:58;;;;;;;11.50;10.50;;;;;;;;;;4979197;28;20812;-93
2021/06/11 05:45:25;;;;;;;11.87;10.87;;;;;;;;;;4974672;28;20454;-94
2021/06/11 05:47:53;;;;;;;11.70;10.10;;;18.60;99.90;;;;;;4978459;28;20518;-92
2021/06/11 05:50:19;;;;;;;10.60;9.70;;;19.00;99.90;;;;;;4978207;28;20508;-93
2021/06/11 05:52:46;;;;;;;10.17;9.20;;;19.20;99.90;;;;;;4975149;28;20461;-92
2021/06/11 05:55:14;;;;;;;10.60;9.70;;;19.30;99.90;;;;;;4973451;28;20469;-93
2021/06/11 05:57:41;;;;;;;10.80;9.80;;;19.70;99.90;;;;;;4978017;28;20450;-93
2021/06/11 06:00:08;;;;;;;10.00;9.10;;;19.80;99.90;;;;;;4975306;28;20504;-94
2021/06/11 06:02:34;;;;;;;10.53;9.47;;;20.00;99.90;;;;;;4972037;28;20454;-91
2021/06/11 06:05:03;;;;;;;9.57;8.60;;;20.20;99.90;;;;;;4972460;28;20600;-92
2021/06/11 06:07:30;;;;;;;10.70;9.73;;;19.80;99.90;;;;;;4977022;28;20799;-92
2021/06/11 06:09:56;;;;;;;10.60;9.70;;;20.20;99.90;;;;;;4977950;28;20467;-93
2021/06/11 06:12:23;;;;;;;11.97;9.73;;;20.80;99.90;;;;;;4978166;28;20458;-93
2021/06/11 06:14:50;;;;;;;10.63;9.63;;;20.80;99.90;;;;;;4977960;28;20443;-93
2021/06/11 06:17:16;;;;;;;9.43;8.70;;;21.10;99.90;;;;;;4976411;28;20545;-91
2021/06/11 06:19:43;;;;;;;9.87;8.90;;;21.40;99.90;;;;;;4977050;28;20473;-93
2021/06/11 06:22:11;;;;;;;10.30;9.37;;;21.50;99.90;;;;;;4975073;28;20466;-92
2021/06/11 06:24:37;;;;;;;9.43;8.63;;;22.10;99.90;;;;;;4975076;28;20454;-92
2021/06/11 06:27:04;;;;;;;9.50;8.60;;;22.20;99.90;;;;;;4955193;28;20479;-93
2021/06/11 06:29:30;;;;;;;10.30;9.50;;;22.30;99.90;;;;;;4954420;29;20455;-92
2021/06/11 06:31:57;;;;;;;10.37;9.53;;;22.20;99.90;;;;;;4959052;28;20439;-91
2021/06/11 06:34:25;;;;;;;11.10;10.20;;;22.20;99.90;;;;;;4970833;28;20477;-93
2021/06/11 06:36:51;;;;;;;11.07;10.17;;;22.40;99.90;;;;;;4977124;28;20946;-93
2021/06/11 06:39:19;;;;;;;11.17;10.37;;;22.60;99.90;;;;;;4976263;28;20490;-93
2021/06/11 06:41:46;;;;;;;12.00;11.00;;;;;;;;;;4974330;28;20952;-94
2021/06/11 06:44:13;;;;;;;11.40;10.50;;;;;;;;;;4975186;28;20430;-93
2021/06/11 06:46:39;;;;;;;11.60;10.60;;;;;;;;;;4976861;28;20989;-92
2021/06/11 06:49:07;;;;;;;11.67;10.70;;;23.10;99.90;;;;;;4977404;28;20439;-94
2021/06/11 06:51:34;;;;;;;12.43;11.40;;;23.00;99.90;;;;;;4974164;28;20450;-92
2021/06/11 06:54:02;;;;;;;12.70;11.70;;;23.50;99.90;;;;;;4973814;28;20466;-93
2021/06/11 06:56:30;;;;;;;11.83;10.93;;;23.00;99.90;;;;;;4971768;28;20430;-91
2021/06/11 06:58:57;;;;;;;12.67;11.37;;;23.30;99.90;;;;;;4972334;28;20458;-91
2021/06/11 07:01:25;;;;;;;11.50;10.60;;;23.30;99.90;;;;;;4975309;28;20509;-91
2021/06/11 07:03:54;;;;;;;8.47;7.90;;;23.70;99.90;;;;;;4974593;28;21092;-89
2021/06/11 07:06:20;;;;;;;11.83;10.90;;;23.80;99.90;;;;;;4972844;28;20490;-89
2021/06/11 07:08:46;;;;;;;11.43;10.53;;;24.20;99.90;;;;;;4975477;28;20446;-89
2021/06/11 07:11:13;;;;;;;10.43;9.60;;;24.30;99.90;;;;;;4975132;28;20454;-93
2021/06/11 07:13:40;;;;;;;11.30;10.40;;;24.10;99.90;;;;;;4974776;28;20496;-87
2021/06/11 07:16:07;;;;;;;11.20;10.30;;;23.90;99.90;;;;;;4975278;28;20457;-88
2021/06/11 07:18:33;;;;;;;10.50;9.63;;;24.20;99.90;;;;;;4975322;28;20450;-90
2021/06/11 07:21:00;;;;;;;12.57;11.67;;;24.30;99.90;;;;;;4981690;28;20450;-89
2021/06/11 07:23:31;;;;;;;11.17;10.27;;;24.20;99.90;;;;;;4995315;28;20442;-89
2021/06/11 07:25:58;;;;;;;11.03;10.23;;;24.20;99.90;;;;;;4989270;28;20447;-90
2021/06/11 07:28:26;;;;;;;12.37;11.47;;;24.30;99.90;;;;;;4990048;28;20523;-89
2021/06/11 07:30:54;;;;;;;11.07;10.23;;;24.40;99.90;;;;;;4975613;28;20489;-93
2021/06/11 07:33:21;;;;;;;11.53;10.47;;;24.60;99.90;;;;;;4975644;28;20485;-88
2021/06/11 07:35:48;;;;;;;10.90;9.90;;;24.50;99.90;;;;;;4972933;28;20462;-87
2021/06/11 07:38:14;;;;;;;11.63;10.73;;;24.90;99.90;;;;;;4975685;28;20451;-85
2021/06/11 07:40:40;;;;;;;11.83;10.93;;;24.80;99.90;;;;;;4977328;28;20549;-85
2021/06/11 07:43:06;;;;;;;10.70;9.80;;;25.10;99.90;;;;;;4979881;28;20453;-84
2021/06/11 07:45:33;;;;;;;11.37;10.40;;;24.70;99.90;;;;;;4973326;28;20866;-89
2021/06/11 07:48:01;;;;;;;10.17;9.47;;;25.10;99.90;;;;;;4975870;28;20497;-87
2021/06/11 07:50:29;;;;;;;10.93;10.13;;;25.60;99.90;;;;;;4980913;28;20490;-85
2021/06/11 07:52:55;;;;;;;9.97;9.23;;;25.50;99.90;;;;;;4977849;28;20945;-90
2021/06/11 07:55:23;;;;;;;9.70;9.00;;;26.10;99.90;;;;;;4978345;28;20490;-93
2021/06/11 07:57:49;;;;;;;9.47;8.77;;;26.10;99.90;;;;;;4980059;28;20458;-92
2021/06/11 08:00:17;;;;;;;9.77;9.07;;;26.40;99.90;;;;;;4976958;28;20458;-89
2021/06/11 08:02:43;;;;;;;9.10;8.40;;;26.40;99.90;;;;;;4977273;28;20461;-90
2021/06/11 08:05:12;;;;;;;9.40;8.70;;;26.50;99.90;;;;;;4957618;28;20470;-90
2021/06/11 08:07:38;;;;;;;9.47;8.57;;;26.40;99.90;;;;;;4975166;28;20489;-88
2021/06/11 08:10:06;;;;;;;9.43;8.83;;;26.50;99.90;;;;;;4965887;28;20450;-88
2021/06/11 08:12:32;;;;;;;9.97;9.27;;;26.20;99.90;;;;;;4975665;28;20450;-89
2021/06/11 08:15:01;;;;;;;10.37;9.23;;;27.20;99.50;;;;;;4974765;28;20446;-90
2021/06/11 08:17:28;;;;;;;10.43;9.50;;;26.80;99.90;;;;;;4972116;28;20450;-87
2021/06/11 08:19:54;;;;;;;9.47;8.70;;;27.10;99.40;;;;;;4974579;28;20926;-89
2021/06/11 08:22:23;;;;;;;10.37;9.57;;;26.50;97.90;;;;;;4972923;28;20505;-89
2021/06/11 08:24:50;;;;;;;9.30;8.57;;;26.50;98.70;;;;;;4971723;28;20461;-90
2021/06/11 08:27:16;;;;;;;9.83;9.03;;;27.10;98.70;;;;;;4970641;28;20496;-88
2021/06/11 08:29:42;;;;;;;10.90;10.10;;;26.20;99.90;;;;;;4976314;28;20485;-89
2021/06/11 08:32:09;;;;;;;10.10;9.27;;;26.80;97.50;;;;;;4980176;28;20446;-85
2021/06/11 08:34:36;;;;;;;10.50;9.70;;;26.80;97.00;;;;;;4975663;28;20520;-91
2021/06/11 08:37:04;;;;;;;10.90;10.10;;;27.30;96.80;;;;;;4974512;28;20450;-86
2021/06/11 08:39:33;;;;;;;11.73;10.60;;;27.50;95.80;;;;;;4970514;28;20456;-87
2021/06/11 08:42:00;;;;;;;10.10;9.40;;;28.10;95.50;;;;;;4974369;28;20446;-90
2021/06/11 08:44:28;;;;;;;11.87;10.90;;;28.00;95.80;;;;;;4974537;28;20488;-90
2021/06/11 08:46:55;;;;;;;10.80;9.97;;;27.40;96.00;;;;;;4970778;28;20493;-87
2021/06/11 08:49:23;;;;;;;11.07;10.10;;;27.80;96.10;;;;;;4975000;28;20458;-91
2021/06/11 08:51:50;;;;;;;10.03;9.37;;;;;;;;;;4974860;28;20458;-91
2021/06/11 08:54:16;;;;;;;11.13;10.33;;;27.90;97.20;;;;;;4971285;28;20504;-92
2021/06/11 08:56:44;;;;;;;12.30;11.30;;;27.70;96.20;;;;;;4976720;28;20458;-92
2021/06/11 08:59:11;;;;;;;12.40;11.50;;;28.20;95.30;;;;;;4978279;28;20457;-91
2021/06/11 09:01:38;;;;;;;10.87;9.80;;;;;;;;;;4978183;28;20483;-91
2021/06/11 09:04:04;;;;;;;10.80;10.00;;;28.50;95.60;;;;;;4974840;28;20470;-93
2021/06/11 09:06:31;;;;;;;10.80;9.90;;;28.50;95.00;;;;;;4976019;28;20458;-92
2021/06/11 09:08:58;;;;;;;12.50;11.50;;;28.60;95.30;;;;;;4977579;28;20505;-91
2021/06/11 09:11:28;;;;;;;10.80;10.00;;;27.90;93.90;;;;;;4978664;28;20462;-92
2021/06/11 09:14:03;;;;;;;12.63;11.33;;;27.90;95.90;;;;;;4978701;28;20473;-90
2021/06/11 09:16:41;;;;;;;11.83;10.93;;;28.00;93.80;;;;;;4978405;28;20453;-91
2021/06/11 09:19:08;;;;;;;12.30;11.43;;;;;;;;;;4978610;28;20818;-92
2021/06/11 09:21:38;;;;;;;12.97;11.37;;;28.00;93.50;;;;;;4978947;28;20458;-92
2021/06/11 09:24:16;;;;;;;12.30;11.10;;;27.00;94.50;;;;;;4977611;28;20457;-91
2021/06/11 09:26:43;;;;;;;12.47;11.47;;;28.10;99.90;;;;;;4974364;28;20482;-93
2021/06/11 09:29:26;;;;;;;12.10;11.17;;;27.10;98.80;;;;;;4958585;29;20821;-92
2021/06/11 09:31:53;;;;;;;13.33;11.00;;;;;;;;;;4958576;29;20854;-91
2021/06/11 09:34:22;;;;;;;12.07;11.10;;;28.60;95.20;;;;;;4955855;29;20482;-88
2021/06/11 09:37:00;;;;;;;12.47;11.27;;;28.70;91.80;;;;;;4960533;29;20534;-91
2021/06/11 09:39:39;;;;;;;14.30;12.90;;;29.30;93.90;;;;;;4958136;29;20513;-90
2021/06/11 09:42:07;;;;;;;12.30;11.40;;;29.10;90.70;;;;;;4983228;23;21033;-91
2021/06/11 09:44:35;;;;;;;11.30;10.50;;;29.00;90.80;;;;;;5016614;28;20788;-88
2021/06/11 09:47:02;;;;;;;12.97;12.00;;;29.00;94.00;;;;;;4994587;28;20496;-89
2021/06/11 09:49:40;;;;;;;11.00;10.20;;;28.90;90.20;;;;;;4997900;28;20449;-88
2021/06/11 09:52:09;;;;;;;11.13;10.33;;;28.40;92.80;;;;;;4999649;28;20456;-88
2021/06/11 09:54:35;;;;;;;13.23;12.10;;;28.70;90.70;;;;;;4998209;28;20460;-87
2021/06/11 09:57:20;;;;;;;12.77;11.80;;;29.20;88.00;;;;;;4999232;28;20960;-86
2021/06/11 09:59:49;;;;;;;12.87;11.67;;;29.80;86.70;;;;;;4965711;28;20445;-88
2021/06/11 10:02:19;;;;;;;12.40;11.30;;;28.90;89.00;;;;;;4998070;28;20456;-87
2021/06/11 10:04:46;;;;;;;11.40;10.43;;;28.90;87.90;;;;;;4995121;28;20526;-91
2021/06/11 10:07:13;;;;;;;12.90;11.90;;;28.90;82.50;;;;;;5000732;28;20489;-88
2021/06/11 10:09:41;;;;;;;11.10;10.20;;;28.70;92.00;;;;;;4999851;28;20453;-89
2021/06/11 10:12:09;;;;;;;10.90;10.10;;;29.20;89.70;;;;;;4999994;28;20467;-90
2021/06/11 10:14:36;;;;;;;11.57;10.77;;;29.60;88.50;;;;;;5003442;28;20806;-88
2021/06/11 10:17:06;;;;;;;12.80;11.90;;;29.40;85.40;;;;;;4997148;28;20457;-89
2021/06/11 10:19:34;;;;;;;11.60;10.60;;;29.80;85.10;;;;;;4999581;28;20922;-87
2021/06/11 10:22:01;;;;;;;10.10;8.10;;;;;;;;;;4997151;28;20483;-90
2021/06/11 10:24:28;;;;;;;12.50;11.50;;;30.10;80.60;;;;;;4991039;28;20450;-86
2021/06/11 10:26:55;;;;;;;10.77;9.67;;;29.60;81.20;;;;;;4983660;28;20544;-86
2021/06/11 10:29:23;;;;;;;11.30;10.43;;;30.50;82.40;;;;;;4980252;28;20825;-89
2021/06/11 10:31:49;;;;;;;10.20;9.50;;;30.40;80.70;;;;;;4993284;28;20479;-92
2021/06/11 10:34:17;;;;;;;11.43;10.60;;;30.20;80.30;;;;;;4997101;28;20453;-88
2021/06/11 10:36:44;;;;;;;11.33;10.40;;;28.80;83.70;;;;;;4997616;28;20454;-88
2021/06/11 10:39:27;;;;;;;12.53;11.63;;;28.50;85.50;;;;;;5009847;23;20529;-91
2021/06/11 10:42:07;;;;;;;11.17;10.33;;;26.30;90.30;;;;;;5035362;28;20513;-89
2021/06/11 10:44:38;;;;;;;12.33;11.43;;;25.10;96.30;;;;;;5022476;28;20494;-89
2021/06/11 10:47:27;;;;;;;12.60;11.70;;;25.10;96.60;;;;;;5016435;28;20534;-89
2021/06/11 10:50:30;;;;;;;13.50;12.50;;;25.10;98.20;;;;;;5011451;28;20444;-91
2021/06/11 10:53:08;;;;;;;13.00;12.00;;;24.50;97.90;;;;;;5002078;28;20471;-91
2021/06/11 10:55:50;;;;;;;13.27;12.27;;;24.20;99.10;;;;;;5013774;28;20856;-92
2021/06/11 10:58:26;;;;;;;12.90;11.90;;;24.30;99.00;;;;;;4935305;29;20538;-90
2021/06/11 11:00:54;;;;;;;12.53;11.23;;;25.00;99.10;;;;;;4958193;29;20451;-90
2021/06/11 11:03:31;;;;;;;13.50;12.20;;;26.00;99.90;;;;;;4958363;29;20447;-91
2021/06/11 11:06:14;;;;;;;12.47;11.40;;;26.00;99.90;;;;;;4957923;29;20493;-91
2021/06/11 11:08:51;;;;;;;12.53;11.43;;;25.90;99.90;;;;;;4956195;29;20506;-90
2021/06/11 11:11:50;;;;;;;15.23;11.80;;;25.60;96.20;;;;;;4950817;28;20462;-91
2021/06/11 11:14:41;;;;;;;14.60;13.20;;;26.50;99.90;;;;;;4951140;28;20471;-88
2021/06/11 11:17:12;;;;;;;13.30;12.00;;;27.40;96.60;;;;;;5020057;28;20479;-89
2021/06/11 11:19:53;;;;;;;13.63;12.63;;;;;;;;;;5036380;28;20462;-92
2021/06/11 11:22:25;;;;;;;12.00;10.90;;;;;;;;;;5039175;28;20498;-93
2021/06/11 11:24:52;;;;;;;13.70;12.67;;;;;;;;;;5036687;28;20458;-93
2021/06/11 11:27:33;;;;;;;11.83;10.83;;;;;;;;;;5042652;28;20582;-94
2021/06/11 11:30:00;;;;;;;12.57;11.47;;;;;;;;;;5041347;28;20471;-94
2021/06/11 11:32:27;;;;;;;11.37;10.27;;;;;;;;;;5040086;28;20527;-93
2021/06/11 11:35:03;;;;;;;12.37;11.47;;;;;;;;;;5037934;28;20506;-91
2021/06/11 11:37:37;;;;;;;11.80;10.80;;;28.70;90.40;;;;;;5039042;28;20474;-92
2021/06/11 11:40:05;;;;;;;13.30;11.97;;;28.70;87.70;;;;;;5038362;28;20965;-88
2021/06/11 11:42:31;;;;;;;12.37;11.47;;;;;;;;;;5032817;28;20535;-93
2021/06/11 11:44:58;;;;;;;12.80;11.70;;;;;;;;;;5037860;28;20484;-89
2021/06/11 11:47:24;;;;;;;12.27;11.17;;;;;;;;;;5031019;28;20491;-88
2021/06/11 11:49:51;;;;;;;11.77;10.57;;;;;;;;;;5035147;28;20447;-86
2021/06/11 11:52:18;;;;;;;13.50;12.47;;;;;;;;;;5035597;28;20473;-92
2021/06/11 11:55:00;;;;;;;11.80;10.90;;;;;;;;;;5043963;28;20494;-95
2021/06/11 12:00:53;;;;;;;13.10;11.97;;;;;;;;;;4998951;28;20476;-90
2021/06/11 12:03:28;;;;;;;11.43;10.53;;;;;;;;;;4996131;28;20471;-89
2021/06/11 12:05:54;;;;;;;13.07;11.90;;;;;;;;;;4994208;28;20440;-85
2021/06/11 12:08:21;;;;;;;12.00;11.00;;;;;;;;;;4993297;28;20488;-88
2021/06/11 12:10:47;;;;;;;11.63;10.63;;;;;;;;;;4994442;28;20468;-87
2021/06/11 12:13:14;;;;;;;11.63;10.73;;;29.10;96.70;;;;;;4994415;28;20524;-87
2021/06/11 12:15:41;;;;;;;11.00;9.97;;;;;;;;;;4993991;28;20445;-86
2021/06/11 12:18:09;;;;;;;11.07;10.20;;;28.00;84.60;;;;;;4994032;28;20488;-86
2021/06/11 12:20:35;;;;;;;12.87;11.67;;;27.50;99.90;;;;;;4991290;28;20461;-85
2021/06/11 12:23:02;;;;;;;11.97;10.97;;;28.00;85.40;;;;;;4984477;28;20460;-89
2021/06/11 12:25:29;;;;;;;10.97;10.10;;;;;;;;;;4993550;28;20476;-87
2021/06/11 12:27:56;;;;;;;10.73;9.93;;;;;;;;;;4990589;28;20496;-88
2021/06/11 12:30:24;;;;;;;11.43;10.23;;;28.20;87.30;;;;;;4994688;28;20471;-92
2021/06/11 12:32:50;;;;;;;10.67;9.90;;;;;;;;;;4995565;28;20867;-91
2021/06/11 12:35:18;;;;;;;10.27;9.37;;;27.30;87.10;;;;;;4997151;28;20468;-92
2021/06/11 12:37:45;;;;;;;9.47;8.77;;;;;;;;;;4998103;28;20445;-92
2021/06/11 12:40:14;;;;;;;10.67;9.87;;;27.90;87.80;;;;;;4998504;28;20532;-90
2021/06/11 12:42:44;;;;;;;9.67;8.97;;;;;;;;;;4998897;28;20515;-92
2021/06/11 12:45:11;;;;;;;10.50;9.60;;;28.90;99.90;;;;;;4998444;28;20460;-92
2021/06/11 12:47:39;;;;;;;9.63;8.63;;;;;;;;;;5001565;28;20487;-93
2021/06/11 12:50:07;;;;;;;10.07;9.27;;;26.90;81.20;;;;;;5021942;28;20920;-92
2021/06/11 12:52:36;;;;;;;8.93;8.23;;;27.80;99.50;;;;;;5012359;28;20475;-92
2021/06/11 12:55:03;;;;;;;8.27;7.73;;;;;;;;;;5018880;28;20460;-94
2021/06/11 12:57:29;;;;;;;8.70;8.03;;;;;;;;;;5018512;28;20444;-92
2021/06/11 12:59:57;;;;;;;7.63;7.03;;;;;;;;;;5027047;28;20479;-90
2021/06/11 13:02:26;;;;;;;7.80;7.20;;;;;;;;;;5026819;28;20467;-92